Poland, Indiana
Current Conditions -  °F | °C
As of 5:55 PM on Friday 19 Dec 2014 (Local Time) from K4I7 Reporting Station
Overcast Overcast  
Wind Chill: 30°   Ceiling: 2200
Heat Index: 30°   Visibility: 7mi
Dew Point: 23°   Wind: 3mph
Humidity: 75%   Direction: 20°NNE
Pressure: 30.29"   Gusts: NA
Location:  39.44°N, 86.95°W
Report Text: K4I7 192255Z AUTO 02003KT 7SM OVC022 M01/M05 A3029 RMK AO2
Loading
Personal Weather Stations






























Interactive Weather Map New forecast layout! Learn more

10-Day Weather Forecast

Advertisements
Track Severe Weather on mobile